EPWR

Copernicus Wrocław Airport

Wrocław, Poland

TAF EPWR 231730Z 2318/2418 30008KT 9999 SCT040

Issued Valid From Valid To
Jun-23 @ 17:30 UTC
(7 hours ago)
Jun-23 @ 18:00 UTC
(6 hours ago)
Jun-24 @ 18:00 UTC
(in 18 hours)
Jun-23 @ 18:00 - Jun-24 @ 18:00
Wind Visibility Clouds
300° at 8 knots
  • Scattered at 4,000' AGL
Issued Jun-23 @ 17:30 UTC
(7 hours ago)
Valid From Jun-23 @ 18:00 UTC
(6 hours ago)
Valid To Jun-24 @ 18:00 UTC
(in 18 hours)
Jun-23 @ 18:00 - Jun-24 @ 18:00
Wind Visibility
300° at 8 knots 10,000+ meters
Clouds
  • Scattered at 4,000' AGL